createdAt,value
2022-12-16T00:01:45.212Z,83.00
2022-12-16T00:04:15.014Z,70.68
2022-12-16T00:06:44.292Z,68.57
2022-12-16T00:09:13.448Z,83.95
2022-12-16T00:11:43.402Z,77.10
2022-12-16T00:14:12.634Z,82.07
2022-12-16T00:16:41.911Z,78.75
2022-12-16T00:19:14.289Z,87.38
2022-12-16T00:21:43.534Z,77.57
2022-12-16T00:24:12.751Z,93.45
2022-12-16T00:26:41.950Z,96.80
2022-12-16T00:29:12.262Z,85.95
2022-12-16T00:31:41.630Z,73.00
2022-12-16T00:34:10.874Z,83.88
2022-12-16T00:36:40.172Z,81.63
2022-12-16T00:39:09.406Z,90.18
2022-12-16T00:41:39.031Z,115.00
2022-12-16T00:44:08.491Z,94.63
2022-12-16T00:46:40.993Z,83.03
2022-12-16T00:49:10.261Z,82.28
2022-12-16T00:51:39.554Z,76.28
2022-12-16T00:54:08.744Z,76.22
2022-12-16T00:56:38.101Z,80.78
2022-12-16T00:59:07.299Z,62.55
2022-12-16T01:01:37.622Z,70.07
2022-12-16T01:04:07.385Z,64.25
2022-12-16T01:06:38.642Z,73.20
2022-12-16T01:09:07.876Z,68.30
2022-12-16T01:11:37.979Z,73.97
2022-12-16T01:14:07.316Z,86.40
2022-12-16T01:16:36.516Z,67.05
2022-12-16T01:19:06.215Z,65.97
2022-12-16T01:21:35.481Z,80.20
2022-12-16T01:24:05.085Z,71.20
2022-12-16T01:26:34.322Z,81.95
2022-12-16T01:29:03.915Z,73.07
2022-12-16T01:31:33.544Z,66.30
2022-12-16T01:34:02.834Z,74.85
2022-12-16T01:36:32.139Z,71.50
2022-12-16T01:39:02.037Z,73.25
2022-12-16T01:41:31.306Z,85.25
2022-12-16T01:44:23.626Z,70.30
2022-12-16T01:47:07.175Z,89.07
2022-12-16T01:49:48.345Z,70.07
2022-12-16T01:52:29.476Z,76.30
2022-12-16T01:55:17.227Z,70.88
2022-12-16T01:58:03.900Z,62.83
2022-12-16T02:00:33.106Z,84.22
2022-12-16T02:03:03.569Z,68.47
2022-12-16T02:05:36.302Z,68.13
2022-12-16T02:08:10.920Z,50.80
2022-12-16T02:10:46.186Z,55.53
2022-12-16T02:13:34.099Z,59.92
2022-12-16T02:16:41.207Z,68.40
2022-12-16T02:20:13.708Z,50.00
2022-12-16T02:22:42.828Z,53.42
2022-12-16T02:26:00.120Z,61.47
2022-12-16T02:28:40.957Z,53.92
2022-12-16T02:31:27.838Z,55.92
2022-12-16T02:34:11.952Z,45.38
2022-12-16T02:37:21.974Z,57.60
2022-12-16T02:40:02.388Z,49.10
2022-12-16T02:42:54.669Z,56.33
2022-12-16T02:45:32.017Z,49.72
2022-12-16T02:48:01.316Z,62.50
2022-12-16T02:50:53.067Z,49.75
2022-12-16T02:53:23.154Z,45.25
2022-12-16T02:56:08.366Z,47.33
2022-12-16T02:58:48.592Z,60.60
2022-12-16T03:01:29.571Z,50.15
2022-12-16T03:04:23.873Z,39.03
2022-12-16T03:06:56.630Z,51.42
2022-12-16T03:09:33.664Z,40.35
2022-12-16T03:12:08.894Z,42.08
2022-12-16T03:14:43.755Z,44.67
2022-12-16T03:17:17.294Z,44.55
2022-12-16T03:20:13.112Z,36.25
2022-12-16T03:22:47.914Z,46.63
2022-12-16T03:25:18.058Z,36.40
2022-12-16T03:28:11.231Z,33.22
2022-12-16T03:30:50.717Z,42.92
2022-12-16T03:33:39.228Z,35.00
2022-12-16T03:41:21.722Z,53.58
2022-12-16T03:43:51.635Z,34.78
2022-12-16T03:46:21.217Z,41.78
2022-12-16T03:48:53.284Z,36.92
2022-12-16T03:51:22.876Z,32.25
2022-12-16T03:53:52.065Z,45.63
2022-12-16T03:56:21.360Z,43.70
2022-12-16T03:58:52.223Z,46.00
2022-12-16T04:01:21.612Z,43.97
2022-12-16T04:03:51.685Z,34.25
2022-12-16T04:06:20.953Z,38.38
2022-12-16T04:08:50.394Z,35.45
2022-12-16T04:11:38.042Z,34.63
2022-12-16T04:14:25.425Z,44.40
2022-12-16T04:17:13.788Z,33.70
2022-12-16T04:23:02.211Z,41.75
2022-12-16T04:25:37.564Z,43.10
2022-12-16T04:28:06.780Z,37.30
2022-12-16T04:30:36.389Z,36.17
2022-12-16T04:33:32.998Z,39.53
2022-12-16T04:36:21.175Z,40.67
2022-12-16T04:39:08.801Z,44.00
2022-12-16T04:41:55.992Z,35.35
2022-12-16T04:44:43.667Z,32.85
2022-12-16T04:47:31.386Z,34.53
2022-12-16T04:50:18.981Z,33.03
2022-12-16T04:53:09.866Z,38.63
2022-12-16T04:56:03.596Z,30.00
2022-12-16T04:58:51.554Z,29.70
2022-12-16T05:01:39.757Z,29.90
2022-12-16T05:07:14.321Z,30.45
2022-12-16T05:10:01.645Z,27.17
2022-12-16T05:12:49.310Z,31.27
2022-12-16T05:15:38.630Z,33.85
2022-12-16T05:18:31.408Z,26.88
2022-12-16T05:21:40.748Z,27.42
2022-12-16T05:24:28.352Z,28.63
2022-12-16T05:27:15.670Z,29.38
2022-12-16T05:30:03.311Z,26.42
2022-12-16T05:32:50.908Z,35.20
2022-12-16T05:35:38.141Z,29.75
2022-12-16T05:38:25.427Z,21.88
2022-12-16T05:41:12.705Z,23.80
2022-12-16T05:44:00.438Z,20.35
2022-12-16T05:46:47.778Z,19.55
2022-12-16T05:49:35.482Z,18.63
2022-12-16T05:52:22.685Z,47.28
2022-12-16T05:55:10.298Z,35.60
2022-12-16T05:57:57.629Z,24.38
2022-12-16T06:00:45.296Z,29.17
2022-12-16T06:03:33.193Z,29.63
2022-12-16T06:06:21.077Z,34.92
2022-12-16T06:09:08.217Z,25.23
2022-12-16T06:11:56.101Z,24.00
2022-12-16T06:14:43.621Z,26.55
2022-12-16T06:17:30.742Z,19.05
2022-12-16T06:20:18.236Z,20.73
2022-12-16T06:23:14.669Z,19.17
2022-12-16T06:26:02.544Z,25.40
2022-12-16T06:28:50.488Z,24.90
2022-12-16T06:31:37.886Z,19.02
2022-12-16T06:34:25.503Z,31.33
2022-12-16T06:37:12.790Z,50.95
2022-12-16T06:40:00.290Z,20.77
2022-12-16T06:42:47.801Z,24.23
2022-12-16T06:45:38.265Z,24.25
2022-12-16T06:48:30.952Z,19.00
2022-12-16T06:51:18.649Z,23.77
2022-12-16T06:54:06.305Z,23.25
2022-12-16T06:56:53.634Z,32.08
2022-12-16T06:59:41.750Z,38.13
2022-12-16T07:05:18.838Z,17.38
2022-12-16T07:08:11.171Z,19.00
2022-12-16T07:11:09.169Z,24.60
2022-12-16T07:14:02.933Z,20.23
2022-12-16T07:16:50.325Z,20.15
2022-12-16T07:19:38.035Z,24.83
2022-12-16T07:22:25.753Z,19.85
2022-12-16T07:25:13.075Z,25.40
2022-12-16T07:28:08.321Z,19.93
2022-12-16T07:31:00.375Z,21.77
2022-12-16T07:33:48.010Z,22.33
2022-12-16T07:36:35.453Z,22.73
2022-12-16T07:39:23.032Z,22.02
2022-12-16T07:42:11.092Z,25.05
2022-12-16T07:47:45.905Z,19.50
2022-12-16T07:50:33.786Z,24.30
2022-12-16T07:53:22.290Z,19.67
2022-12-16T07:56:10.398Z,29.25
2022-12-16T08:01:45.611Z,22.60
2022-12-16T08:07:19.994Z,23.30
2022-12-16T08:10:07.547Z,18.57
2022-12-16T08:12:55.202Z,22.10
2022-12-16T08:15:42.308Z,22.13
2022-12-16T08:18:29.900Z,22.95
2022-12-16T08:21:17.441Z,18.00
2022-12-16T08:24:04.645Z,20.77
2022-12-16T08:26:51.744Z,23.07
2022-12-16T08:32:34.404Z,24.98
2022-12-16T08:35:30.340Z,19.38
2022-12-16T08:38:18.407Z,16.17
2022-12-16T08:43:56.287Z,42.60
2022-12-16T08:46:43.679Z,19.05
2022-12-16T08:49:31.281Z,30.10
2022-12-16T08:52:19.105Z,14.27
2022-12-16T08:55:06.411Z,21.50
2022-12-16T08:57:53.797Z,22.17
2022-12-16T09:00:43.514Z,21.50
2022-12-16T09:03:31.363Z,24.40
2022-12-16T09:06:21.675Z,23.65
2022-12-16T09:09:09.276Z,25.02
2022-12-16T09:11:57.137Z,21.60
2022-12-16T09:14:44.896Z,21.27
2022-12-16T09:17:32.449Z,20.80
2022-12-16T09:20:19.632Z,18.50
2022-12-16T09:23:07.012Z,26.63
2022-12-16T09:25:55.016Z,28.15
2022-12-16T09:28:43.875Z,27.65
2022-12-16T09:31:31.410Z,20.02
2022-12-16T09:34:18.959Z,20.13
2022-12-16T09:37:06.658Z,21.60
2022-12-16T09:39:53.803Z,21.20
2022-12-16T09:43:10.226Z,17.27
2022-12-16T09:46:25.312Z,32.45
2022-12-16T09:49:15.257Z,22.83
2022-12-16T09:52:05.232Z,21.13
2022-12-16T09:54:58.966Z,28.52
2022-12-16T09:57:51.371Z,23.55
2022-12-16T10:00:48.657Z,25.70
2022-12-16T10:03:53.835Z,33.22
2022-12-16T10:07:08.309Z,27.58
2022-12-16T10:10:34.656Z,32.30
2022-12-16T10:13:37.313Z,32.30
2022-12-16T10:16:48.658Z,35.97
2022-12-16T10:20:12.018Z,45.17
2022-12-16T10:23:17.799Z,43.72
2022-12-16T10:26:26.503Z,37.40
2022-12-16T10:29:32.374Z,33.10
2022-12-16T10:32:19.606Z,45.58
2022-12-16T10:35:08.196Z,64.20
2022-12-16T10:37:59.965Z,33.25
2022-12-16T10:40:52.061Z,41.15
2022-12-16T10:44:06.961Z,34.20
2022-12-16T10:46:55.742Z,41.75
2022-12-16T10:49:43.448Z,33.53
2022-12-16T10:52:33.469Z,52.08
2022-12-16T10:56:31.486Z,35.72
2022-12-16T10:59:26.315Z,57.13
2022-12-16T11:02:44.033Z,32.50
2022-12-16T11:08:50.227Z,37.67
2022-12-16T11:11:46.896Z,37.10
2022-12-16T11:15:06.012Z,29.27
2022-12-16T11:17:58.178Z,44.10
2022-12-16T11:20:46.576Z,37.42
2022-12-16T11:23:45.310Z,52.45
2022-12-16T11:26:37.492Z,60.80
2022-12-16T11:29:36.473Z,71.00
2022-12-16T11:32:46.091Z,62.28
2022-12-16T11:35:40.177Z,69.53
2022-12-16T11:38:42.031Z,72.22
2022-12-16T11:41:43.688Z,61.60
2022-12-16T11:44:41.708Z,68.13
2022-12-16T11:48:10.502Z,55.88
2022-12-16T11:51:14.035Z,58.67
2022-12-16T11:54:29.382Z,51.28
2022-12-16T11:57:19.486Z,53.95
2022-12-16T12:00:20.880Z,50.80
2022-12-16T12:03:47.275Z,50.60
2022-12-16T12:07:05.532Z,66.07
2022-12-16T12:10:00.275Z,65.60
2022-12-16T12:13:21.657Z,71.63
2022-12-16T12:16:19.838Z,49.55
2022-12-16T12:19:43.775Z,62.78
2022-12-16T12:22:57.656Z,56.00
2022-12-16T12:26:27.509Z,64.00
2022-12-16T12:29:29.679Z,57.28
2022-12-16T12:32:42.514Z,61.30
2022-12-16T12:36:00.617Z,41.22
2022-12-16T12:39:03.311Z,48.55
2022-12-16T12:42:32.160Z,63.28
2022-12-16T12:46:00.485Z,64.28
2022-12-16T12:49:17.407Z,73.65
2022-12-16T12:52:28.612Z,64.47
2022-12-16T12:55:48.440Z,57.55
2022-12-16T12:58:42.078Z,78.82
2022-12-16T13:01:35.251Z,65.28
2022-12-16T13:04:37.773Z,65.38
2022-12-16T13:07:27.707Z,70.57
2022-12-16T13:10:49.385Z,62.22
2022-12-16T13:13:53.836Z,83.50
2022-12-16T13:17:09.472Z,84.53
2022-12-16T13:20:15.322Z,101.40
2022-12-16T13:23:08.994Z,61.35
2022-12-16T13:26:11.311Z,57.13
2022-12-16T13:29:03.135Z,82.97
2022-12-16T13:31:51.462Z,57.33
2022-12-16T13:34:47.217Z,53.70
2022-12-16T13:38:12.305Z,57.45
2022-12-16T13:41:46.934Z,60.15
2022-12-16T13:45:03.165Z,73.43
2022-12-16T13:48:00.368Z,66.63
2022-12-16T13:51:01.060Z,64.72
2022-12-16T13:54:11.082Z,77.80
2022-12-16T13:57:09.594Z,69.78
2022-12-16T14:00:01.284Z,89.40
2022-12-16T14:03:02.389Z,77.88
2022-12-16T14:05:55.995Z,83.13
2022-12-16T14:08:46.108Z,79.88
2022-12-16T14:12:07.615Z,199.65
2022-12-16T14:15:13.489Z,76.32
2022-12-16T14:18:21.671Z,82.93
2022-12-16T14:24:43.971Z,80.38
2022-12-16T14:27:42.815Z,85.68
2022-12-16T14:30:43.979Z,77.72
2022-12-16T14:33:47.776Z,76.40
2022-12-16T14:36:49.707Z,80.32
2022-12-16T14:39:49.470Z,89.60
2022-12-16T14:42:42.065Z,88.97
2022-12-16T14:45:54.804Z,68.82
2022-12-16T14:48:53.493Z,77.70
2022-12-16T14:51:52.839Z,107.07
2022-12-16T14:54:56.112Z,69.63
2022-12-16T14:57:51.916Z,71.63
2022-12-16T15:00:44.459Z,65.55
2022-12-16T15:03:32.053Z,71.60
2022-12-16T15:06:25.678Z,89.10
2022-12-16T15:09:21.438Z,73.32
2022-12-16T15:12:15.070Z,66.65
2022-12-16T15:15:06.341Z,73.90
2022-12-16T15:18:16.499Z,59.90
2022-12-16T15:21:15.273Z,74.60
2022-12-16T15:24:05.332Z,70.43
2022-12-16T15:26:55.016Z,59.38
2022-12-16T15:29:58.101Z,62.72
2022-12-16T15:32:45.704Z,66.05
2022-12-16T15:35:56.482Z,67.40
2022-12-16T15:38:53.746Z,59.80
2022-12-16T15:41:59.896Z,59.40
2022-12-16T15:44:49.586Z,62.03
2022-12-16T15:47:56.795Z,61.28
2022-12-16T15:50:48.433Z,69.78
2022-12-16T15:53:49.598Z,78.20
2022-12-16T15:57:04.516Z,66.43
2022-12-16T15:59:57.567Z,73.07
2022-12-16T16:02:50.987Z,59.10
2022-12-16T16:05:44.327Z,55.42
2022-12-16T16:08:31.832Z,88.45
2022-12-16T16:11:19.231Z,69.00
2022-12-16T16:14:12.279Z,73.13
2022-12-16T16:17:01.762Z,70.72
2022-12-16T16:19:48.921Z,66.70
2022-12-16T16:22:38.205Z,77.18
2022-12-16T16:25:26.515Z,50.75
2022-12-16T16:28:14.178Z,61.58
2022-12-16T16:31:01.617Z,59.67
2022-12-16T16:33:49.098Z,51.53
2022-12-16T16:36:37.009Z,52.30
2022-12-16T16:39:24.588Z,51.03
2022-12-16T16:42:11.921Z,55.17
2022-12-16T16:44:59.286Z,51.58
2022-12-16T16:47:46.461Z,66.78
2022-12-16T16:50:36.784Z,54.30
2022-12-16T16:53:24.053Z,46.05
2022-12-16T16:56:19.724Z,55.17
2022-12-16T16:59:07.512Z,56.70
2022-12-16T17:01:55.318Z,49.27
2022-12-16T17:04:43.124Z,47.33
2022-12-16T17:07:30.567Z,48.50
2022-12-16T17:10:18.333Z,41.55
2022-12-16T17:13:05.696Z,47.72
2022-12-16T17:15:57.031Z,48.38
2022-12-16T17:18:49.007Z,41.20
2022-12-16T17:21:39.327Z,48.80
2022-12-16T17:24:26.941Z,47.28
2022-12-16T17:27:14.127Z,45.27
2022-12-16T17:30:01.768Z,46.75
2022-12-16T17:32:49.361Z,49.17
2022-12-16T17:35:36.773Z,50.23
2022-12-16T17:38:24.038Z,42.10
2022-12-16T17:41:14.327Z,50.20
2022-12-16T17:44:01.789Z,38.95
2022-12-16T17:47:08.997Z,45.78
2022-12-16T17:49:56.372Z,44.67
2022-12-16T17:52:43.673Z,40.40
2022-12-16T17:55:31.348Z,42.63
2022-12-16T17:58:19.302Z,43.75
2022-12-16T18:01:06.612Z,41.35
2022-12-16T18:03:54.451Z,43.22
2022-12-16T18:06:42.121Z,44.58
2022-12-16T18:09:29.376Z,44.38
2022-12-16T18:12:17.651Z,47.83
2022-12-16T18:15:05.033Z,43.13
2022-12-16T18:17:52.556Z,40.88
2022-12-16T18:20:39.685Z,42.20
2022-12-16T18:23:26.951Z,35.80
2022-12-16T18:26:24.613Z,38.65
2022-12-16T18:29:12.255Z,34.45
2022-12-16T18:31:59.536Z,32.67
2022-12-16T18:34:47.094Z,36.22
2022-12-16T18:37:35.347Z,34.53
2022-12-16T18:40:22.616Z,39.28
2022-12-16T18:43:09.930Z,35.15
2022-12-16T18:45:57.125Z,33.92
2022-12-16T18:48:44.585Z,54.08
2022-12-16T18:51:48.714Z,46.78
2022-12-16T18:54:36.451Z,37.75
2022-12-16T18:57:23.937Z,39.43
2022-12-16T19:00:11.237Z,34.72
2022-12-16T19:02:58.656Z,32.75
2022-12-16T19:05:46.328Z,36.88
2022-12-16T19:08:34.039Z,31.77
2022-12-16T19:11:21.962Z,33.58
2022-12-16T19:14:09.829Z,33.23
2022-12-16T19:16:57.458Z,30.67
2022-12-16T19:19:44.985Z,37.73
2022-12-16T19:22:32.456Z,33.53
2022-12-16T19:25:20.113Z,42.08
2022-12-16T19:28:07.749Z,39.27
2022-12-16T19:30:54.867Z,36.70
2022-12-16T19:33:44.156Z,34.70
2022-12-16T19:36:31.612Z,42.70
2022-12-16T19:39:19.037Z,39.92
2022-12-16T19:42:06.112Z,39.28
2022-12-16T19:44:53.741Z,39.85
2022-12-16T19:47:43.516Z,35.22
2022-12-16T19:50:31.172Z,39.75
2022-12-16T19:53:19.736Z,38.97
2022-12-16T19:58:56.235Z,33.97
2022-12-16T20:01:44.066Z,33.90
2022-12-16T20:04:31.698Z,28.27
2022-12-16T20:07:23.159Z,36.78
2022-12-16T20:10:11.302Z,39.72
2022-12-16T20:12:59.357Z,57.40
2022-12-16T20:15:46.361Z,36.08
2022-12-16T20:18:33.629Z,33.20
2022-12-16T20:21:25.248Z,43.88
2022-12-16T20:24:12.861Z,36.97
2022-12-16T20:27:00.402Z,31.87
2022-12-16T20:29:47.638Z,34.92
2022-12-16T20:32:35.415Z,42.60
2022-12-16T20:35:33.774Z,32.80
2022-12-16T20:38:21.141Z,48.95
2022-12-16T20:41:19.021Z,34.78
2022-12-16T20:44:10.624Z,26.45
2022-12-16T20:46:58.459Z,27.17
2022-12-16T20:49:45.694Z,29.90
2022-12-16T20:52:33.317Z,23.70
2022-12-16T20:55:20.443Z,22.73
2022-12-16T20:58:07.825Z,31.40
2022-12-16T21:01:15.130Z,30.98
2022-12-16T21:04:02.675Z,23.40
2022-12-16T21:06:49.813Z,24.20
2022-12-16T21:09:37.006Z,24.45
2022-12-16T21:12:25.503Z,23.98
2022-12-16T21:18:01.907Z,28.38
2022-12-16T21:20:49.169Z,22.55
2022-12-16T21:23:38.795Z,24.63
2022-12-16T21:26:26.716Z,27.08
2022-12-16T21:29:13.865Z,28.10
2022-12-16T21:32:01.023Z,25.13
2022-12-16T21:34:51.758Z,28.05
2022-12-16T21:37:39.361Z,24.67
2022-12-16T21:40:27.626Z,25.02
2022-12-16T21:43:15.361Z,23.25
2022-12-16T21:46:02.598Z,25.47
2022-12-16T21:48:49.800Z,24.10
2022-12-16T21:51:36.978Z,23.02
2022-12-16T21:54:24.293Z,25.35
2022-12-16T21:57:11.847Z,29.92
2022-12-16T21:59:59.050Z,30.60
2022-12-16T22:02:46.259Z,28.27
2022-12-16T22:05:33.451Z,29.05
2022-12-16T22:08:27.870Z,27.38
2022-12-16T22:11:17.325Z,28.95
2022-12-16T22:14:04.770Z,29.40
2022-12-16T22:16:52.119Z,31.38
2022-12-16T22:19:39.758Z,29.15
2022-12-16T22:22:26.953Z,30.90
2022-12-16T22:25:14.611Z,29.02
2022-12-16T22:28:02.059Z,25.97
2022-12-16T22:30:49.346Z,27.30
2022-12-16T22:33:36.986Z,35.25
2022-12-16T22:36:31.514Z,32.87
2022-12-16T22:39:18.791Z,26.50
2022-12-16T22:42:05.897Z,28.63
2022-12-16T22:44:56.507Z,31.92
2022-12-16T22:47:44.009Z,35.13
2022-12-16T22:50:31.637Z,33.60
2022-12-16T22:53:19.138Z,31.47
2022-12-16T22:56:15.237Z,34.35
2022-12-16T22:59:02.581Z,35.67
2022-12-16T23:01:49.892Z,31.38
2022-12-16T23:04:37.516Z,30.63
2022-12-16T23:07:25.166Z,31.43
2022-12-16T23:10:12.902Z,37.63
2022-12-16T23:13:00.210Z,33.07
2022-12-16T23:15:47.987Z,37.78
2022-12-16T23:18:35.452Z,43.17
2022-12-16T23:21:22.840Z,52.40
2022-12-16T23:24:13.282Z,33.03
2022-12-16T23:27:03.855Z,37.45
2022-12-16T23:29:51.512Z,35.28
2022-12-16T23:32:39.290Z,38.47
2022-12-16T23:35:27.100Z,34.85
2022-12-16T23:38:26.552Z,40.13
2022-12-16T23:41:18.682Z,39.22
2022-12-16T23:44:06.077Z,32.03
2022-12-16T23:46:53.492Z,38.72
2022-12-16T23:49:41.109Z,41.97
2022-12-16T23:52:28.365Z,40.35
2022-12-16T23:55:15.611Z,30.63
2022-12-16T23:58:13.835Z,33.97
